Decoded Metar for KGCC (GILLETTE in WY, USA) (IATA:GCC) | Meteo·Mobile Aviation Weather
aviador You're here:

KGCC Decoded Metar

GILLETTE in WY, USA
Report Time2018-09-18 20:53:00
UTC Time2018-09-18 21:14:43
Flight Rules vfr VFR
Wind140° at 11 kt
W.Decomp.*RWY 16: 9.3 kt HW 5.8 kt LCW
RWY 21: 1.5 kt HW 10.9 kt LCW
W.Rank140° ranks 24
Current wind is above 140° avg. (8.8)
Visibility9999 m
Phenomena:N/A
Clouds:N/A
Expected CloudBase > 6,000 ft AGL from Temp-Dew spread
CeilingNone
Temp25°C (ISA +19)
Dew Point10°C (39% RH)
AAT21.1°C
QNH1012 hPa
Density Alt6,667 ft
Elevation4,331 ft
Report Wrong Elevation
Raw Report
KGCC 182053Z AUTO 14011KT 10SM CLR 25/10 A2989 RMK AO2 SLP088
T02500100 58025=

Extra information for KGCC:More info

Metar Taf Metar & Taf Last 4 Metars F.Rules Stats Wind Profile Meteogram Temp Stats Airport Information Weather charts Add Link Nearby VenuesMetar ALERT Operation Metar Decoded Social comments

AIRNAV info for KGCC